Time;durP1;ratioP1;P1;durP2;ratioP2;P2;SDS_P1;SDS_P2;PMS_P1;PMS_P2;Temp;Humidity;BMP_temperature;BMP_pressure;BME280_temperature;BME280_humidity;BME280_pressure;Samples;Min_cycle;Max_cycle;Signal;HPM_P1;HPM_P2
2023/05/16 00:01:15;;;;;;;18.90;17.30;;;11.30;80.80;;;;;;5014502;28;20197;-87
2023/05/16 00:03:41;;;;;;;17.97;16.50;;;11.30;80.50;;;;;;5013339;28;20239;-88
2023/05/16 00:06:07;;;;;;;16.67;15.43;;;11.30;80.60;;;;;;5013228;28;20188;-87
2023/05/16 00:08:33;;;;;;;17.83;16.37;;;11.30;80.70;;;;;;5014463;28;20177;-87
2023/05/16 00:10:59;;;;;;;17.60;15.93;;;11.20;81.00;;;;;;5013146;28;20552;-87
2023/05/16 00:13:25;;;;;;;18.23;16.77;;;11.30;81.10;;;;;;5012537;28;20560;-86
2023/05/16 00:15:52;;;;;;;17.03;15.43;;;11.20;81.00;;;;;;5014398;28;20177;-86
2023/05/16 00:18:18;;;;;;;18.23;16.63;;;11.20;81.00;;;;;;5014036;28;20204;-87
2023/05/16 00:20:44;;;;;;;18.10;16.37;;;11.20;81.00;;;;;;5014159;28;20193;-87
2023/05/16 00:23:11;;;;;;;17.93;16.37;;;11.20;80.90;;;;;;5012994;28;20170;-86
2023/05/16 00:25:37;;;;;;;18.03;16.53;;;11.20;81.20;;;;;;5012848;28;20184;-86
2023/05/16 00:28:02;;;;;;;18.40;16.90;;;11.10;81.40;;;;;;5014339;28;20570;-86
2023/05/16 00:30:28;;;;;;;19.20;17.30;;;11.20;81.20;;;;;;5013357;28;20181;-87
2023/05/16 00:32:55;;;;;;;17.93;16.30;;;11.20;81.30;;;;;;5014283;28;20702;-86
2023/05/16 00:35:20;;;;;;;18.60;16.00;;;11.20;81.60;;;;;;5012879;28;20550;-86
2023/05/16 00:37:46;;;;;;;17.80;16.43;;;11.20;81.60;;;;;;5012668;28;20177;-86
2023/05/16 00:40:12;;;;;;;12.13;8.50;;;11.30;81.20;;;;;;5013828;28;20174;-86
2023/05/16 00:42:38;;;;;;;11.07;8.70;;;11.30;80.90;;;;;;5013919;28;20184;-86
2023/05/16 00:45:05;;;;;;;9.43;8.57;;;11.30;81.10;;;;;;5012500;28;20181;-86
2023/05/16 00:47:30;;;;;;;12.13;8.60;;;11.30;81.40;;;;;;5013793;28;20169;-86
2023/05/16 00:49:56;;;;;;;12.87;8.87;;;11.30;81.50;;;;;;5012835;28;20204;-86
2023/05/16 00:52:22;;;;;;;13.17;6.87;;;11.30;82.00;;;;;;5012491;28;20575;-86
2023/05/16 00:54:48;;;;;;;11.43;6.27;;;11.20;83.30;;;;;;5012432;28;20188;-86
2023/05/16 00:57:14;;;;;;;14.70;6.70;;;11.10;84.30;;;;;;5013696;28;20553;-86
2023/05/16 00:59:41;;;;;;;11.47;6.30;;;11.00;85.00;;;;;;5012411;28;20207;-86
2023/05/16 01:02:06;;;;;;;13.77;6.73;;;10.90;85.40;;;;;;5012805;28;20197;-86
2023/05/16 01:04:32;;;;;;;10.60;7.20;;;10.80;85.50;;;;;;5012385;28;20230;-86
2023/05/16 01:06:58;;;;;;;13.10;6.73;;;10.80;85.60;;;;;;5013523;28;20173;-86
2023/05/16 01:09:23;;;;;;;17.47;7.37;;;10.80;85.20;;;;;;5012445;28;20536;-86
2023/05/16 01:12:08;;;;;;;20.80;6.93;;;10.80;84.90;;;;;;5013634;28;20552;-86
2023/05/16 01:14:55;;;;;;;13.03;8.00;;;10.70;84.40;;;;;;5013754;28;20571;-86
2023/05/16 01:17:29;;;;;;;17.83;8.60;;;10.80;84.00;;;;;;5012551;28;20176;-86
2023/05/16 01:19:58;;;;;;;20.00;8.37;;;10.80;83.50;;;;;;5012736;28;20203;-86
2023/05/16 01:22:44;;;;;;;16.90;8.83;;;10.80;83.10;;;;;;5012244;28;20576;-86
2023/05/16 01:25:16;;;;;;;12.37;7.80;;;10.80;82.50;;;;;;5013767;28;20169;-86
2023/05/16 01:27:43;;;;;;;15.07;7.57;;;10.70;82.20;;;;;;5017963;28;20170;-86
2023/05/16 01:30:17;;;;;;;15.00;8.97;;;10.70;82.20;;;;;;5017452;28;20325;-86
2023/05/16 01:32:43;;;;;;;20.63;15.77;;;10.80;81.70;;;;;;5016359;28;20200;-86
2023/05/16 01:35:11;;;;;;;17.77;15.93;;;10.80;81.50;;;;;;5016197;28;20204;-86
2023/05/16 01:37:48;;;;;;;20.47;15.83;;;10.80;81.30;;;;;;5016262;28;20265;-86
2023/05/16 01:40:57;;;;;;;25.07;15.93;;;10.80;81.30;;;;;;5017845;28;20554;-85
2023/05/16 01:43:32;;;;;;;21.93;17.17;;;10.70;81.40;;;;;;5008036;28;20272;-86
2023/05/16 01:46:08;;;;;;;19.93;16.50;;;10.70;80.80;;;;;;5016255;28;20176;-86
2023/05/16 01:48:57;;;;;;;17.80;15.77;;;10.70;80.70;;;;;;5017258;28;20166;-86
2023/05/16 01:51:29;;;;;;;18.97;16.97;;;10.70;80.40;;;;;;5015446;28;20217;-86
2023/05/16 01:54:00;;;;;;;22.27;16.27;;;10.70;79.90;;;;;;5016009;28;20594;-86
2023/05/16 01:56:28;;;;;;;26.07;16.43;;;10.70;79.80;;;;;;5016280;28;20197;-86
2023/05/16 01:58:55;;;;;;;18.47;16.57;;;10.70;79.50;;;;;;5015825;28;20213;-86
2023/05/16 02:01:21;;;;;;;19.37;17.57;;;10.60;79.50;;;;;;5015910;28;20201;-86
2023/05/16 02:03:47;;;;;;;21.63;18.30;;;10.60;79.10;;;;;;5016945;28;20247;-86
2023/05/16 02:06:13;;;;;;;23.33;18.80;;;10.60;78.50;;;;;;5017262;28;20224;-86
2023/05/16 02:08:38;;;;;;;21.67;17.80;;;10.60;78.10;;;;;;5017329;28;20591;-86
2023/05/16 02:11:04;;;;;;;21.00;18.27;;;10.70;77.90;;;;;;5017387;28;20276;-86
2023/05/16 02:13:29;;;;;;;24.67;16.37;;;10.70;78.00;;;;;;5015441;28;20177;-86
2023/05/16 02:15:55;;;;;;;19.57;17.60;;;10.60;78.50;;;;;;5016771;28;20178;-86
2023/05/16 02:18:22;;;;;;;19.17;17.17;;;10.60;78.70;;;;;;5015524;28;20612;-86
2023/05/16 02:20:48;;;;;;;23.03;16.97;;;10.60;78.70;;;;;;5016469;28;20192;-86
2023/05/16 02:23:14;;;;;;;24.03;18.83;;;10.60;78.60;;;;;;5016531;28;20219;-86
2023/05/16 02:25:40;;;;;;;16.80;9.63;;;10.60;78.10;;;;;;5015442;28;20178;-86
2023/05/16 02:28:05;;;;;;;15.07;8.50;;;10.60;77.90;;;;;;5015669;28;20205;-86
2023/05/16 02:30:31;;;;;;;15.30;8.23;;;10.60;77.70;;;;;;5015400;28;20185;-86
2023/05/16 02:32:57;;;;;;;17.10;8.63;;;10.50;77.60;;;;;;5015717;28;20215;-86
2023/05/16 02:35:23;;;;;;;18.83;9.17;;;10.60;77.60;;;;;;5015247;28;20185;-86
2023/05/16 02:37:48;;;;;;;22.73;8.30;;;10.50;77.10;;;;;;5015247;28;20173;-86
2023/05/16 02:40:14;;;;;;;21.80;8.80;;;10.50;77.20;;;;;;5016942;28;20200;-86
2023/05/16 02:42:39;;;;;;;17.97;8.07;;;10.50;77.30;;;;;;5017313;28;20532;-86
2023/05/16 02:45:05;;;;;;;19.93;8.80;;;10.50;77.10;;;;;;5015639;28;20173;-86
2023/05/16 02:47:31;;;;;;;19.37;8.67;;;10.50;77.30;;;;;;5015767;28;20181;-86
2023/05/16 02:49:56;;;;;;;18.80;9.30;;;10.40;77.50;;;;;;5015471;28;20203;-87
2023/05/16 02:52:22;;;;;;;23.10;8.97;;;10.50;77.70;;;;;;5016855;28;20207;-86
2023/05/16 02:54:48;;;;;;;24.50;9.83;;;10.50;77.50;;;;;;5016848;28;20648;-86
2023/05/16 02:57:13;;;;;;;24.13;9.23;;;10.50;77.90;;;;;;5017086;28;20177;-86
2023/05/16 02:59:39;;;;;;;21.30;8.57;;;10.50;78.10;;;;;;5015434;28;20252;-86
2023/05/16 03:02:05;;;;;;;25.00;9.00;;;10.50;78.50;;;;;;5015143;28;20201;-86
2023/05/16 03:04:30;;;;;;;26.10;8.93;;;10.40;79.40;;;;;;5016468;28;20174;-86
2023/05/16 03:06:56;;;;;;;21.40;8.60;;;10.50;79.60;;;;;;5015178;28;20276;-85
2023/05/16 03:09:21;;;;;;;17.00;7.40;;;10.40;79.60;;;;;;5015004;28;20181;-86
2023/05/16 03:11:47;;;;;;;23.77;8.17;;;10.40;79.30;;;;;;5016446;28;20308;-86
2023/05/16 03:14:13;;;;;;;19.77;8.40;;;10.40;79.00;;;;;;5016352;28;20177;-86
2023/05/16 03:16:40;;;;;;;37.23;20.57;;;10.40;79.00;;;;;;5015080;28;20275;-86
2023/05/16 03:19:06;;;;;;;31.27;16.40;;;10.40;79.00;;;;;;5015296;28;20201;-86
2023/05/16 03:21:31;;;;;;;28.93;17.10;;;10.50;79.10;;;;;;5014827;28;20569;-86
2023/05/16 03:23:57;;;;;;;21.47;15.13;;;10.40;79.10;;;;;;5014704;28;20200;-87
2023/05/16 03:26:23;;;;;;;18.70;16.23;;;10.30;78.90;;;;;;5014662;28;20762;-87
2023/05/16 03:28:50;;;;;;;25.93;16.97;;;10.30;79.00;;;;;;5014850;28;20271;-86
2023/05/16 03:31:16;;;;;;;23.43;17.30;;;10.40;78.80;;;;;;5015650;28;20193;-87
2023/05/16 03:33:42;;;;;;;30.83;17.30;;;10.30;78.00;;;;;;5014063;28;20663;-86
2023/05/16 03:36:08;;;;;;;27.97;16.87;;;10.30;77.80;;;;;;5014115;28;20188;-86
2023/05/16 03:38:33;;;;;;;31.73;17.30;;;10.20;77.80;;;;;;5014401;28;20578;-87
2023/05/16 03:40:59;;;;;;;24.53;16.60;;;10.20;77.90;;;;;;5014024;28;20699;-86
2023/05/16 03:43:25;;;;;;;24.13;16.83;;;10.10;77.90;;;;;;5015273;28;20276;-86
2023/05/16 03:45:50;;;;;;;19.80;14.63;;;10.10;77.90;;;;;;5015943;28;20184;-86
2023/05/16 03:48:16;;;;;;;28.53;15.10;;;10.20;77.90;;;;;;5014762;28;20181;-86
2023/05/16 03:50:41;;;;;;;25.20;15.47;;;10.20;77.60;;;;;;5015292;28;20217;-86
2023/05/16 03:53:08;;;;;;;25.77;14.90;;;10.10;77.70;;;;;;5014278;28;20185;-87
2023/05/16 03:55:34;;;;;;;23.77;13.60;;;10.10;77.90;;;;;;5014353;28;20181;-86
2023/05/16 03:57:59;;;;;;;20.27;14.97;;;10.10;77.50;;;;;;5015021;28;20264;-86
2023/05/16 04:00:25;;;;;;;20.73;15.07;;;10.10;77.20;;;;;;5015193;28;20184;-86
2023/05/16 04:02:51;;;;;;;24.63;14.23;;;10.10;77.40;;;;;;5013813;28;20193;-86
2023/05/16 04:05:16;;;;;;;25.17;15.40;;;10.20;77.50;;;;;;5014088;28;20232;-87
2023/05/16 04:07:42;;;;;;;24.27;15.37;;;10.10;77.40;;;;;;5014274;28;20181;-86
2023/05/16 04:10:09;;;;;;;20.27;15.07;;;10.10;77.50;;;;;;5013812;28;20189;-86
2023/05/16 04:12:34;;;;;;;21.83;7.73;;;10.00;77.40;;;;;;5013880;28;20209;-86
2023/05/16 04:15:01;;;;;;;18.87;7.43;;;9.90;77.60;;;;;;5014125;28;20177;-86
2023/05/16 04:17:26;;;;;;;18.60;6.73;;;9.90;77.90;;;;;;5013683;28;20280;-86
2023/05/16 04:19:51;;;;;;;23.53;8.27;;;9.90;77.90;;;;;;5013521;28;20284;-86
2023/05/16 04:22:20;;;;;;;22.23;7.20;;;10.00;77.90;;;;;;5014310;28;20671;-86
2023/05/16 04:24:45;;;;;;;17.60;7.07;;;10.00;78.00;;;;;;5013201;28;20200;-87
2023/05/16 04:27:11;;;;;;;17.87;6.70;;;10.00;78.00;;;;;;5013626;28;20648;-86
2023/05/16 04:29:36;;;;;;;19.90;6.20;;;10.00;77.40;;;;;;5013809;28;20181;-86
2023/05/16 04:32:02;;;;;;;19.80;6.90;;;10.00;77.20;;;;;;5014966;28;20569;-86
2023/05/16 04:34:28;;;;;;;25.50;6.90;;;10.00;77.10;;;;;;5013523;28;20718;-86
2023/05/16 04:36:54;;;;;;;18.60;6.30;;;10.00;76.70;;;;;;5014775;28;20185;-86
2023/05/16 04:39:19;;;;;;;24.60;6.93;;;10.10;76.30;;;;;;5013405;28;20197;-86
2023/05/16 04:41:45;;;;;;;20.57;6.60;;;10.00;75.60;;;;;;5014903;28;20195;-86
2023/05/16 04:44:10;;;;;;;16.33;6.30;;;10.10;75.60;;;;;;5013329;28;20251;-86
2023/05/16 04:46:36;;;;;;;20.73;6.40;;;10.00;75.20;;;;;;5013339;28;20659;-86
2023/05/16 04:49:02;;;;;;;20.97;7.57;;;10.00;75.20;;;;;;5014906;28;20197;-86
2023/05/16 04:51:27;;;;;;;20.33;6.57;;;10.10;75.40;;;;;;5014666;28;20204;-86
2023/05/16 04:53:53;;;;;;;16.07;6.40;;;10.10;75.50;;;;;;5013266;28;20662;-88
2023/05/16 04:56:21;;;;;;;17.63;6.40;;;9.90;75.70;;;;;;5013557;28;20209;-86
2023/05/16 04:58:47;;;;;;;21.23;14.40;;;9.90;75.80;;;;;;5014059;28;20197;-86
2023/05/16 05:01:12;;;;;;;19.80;15.00;;;9.90;75.60;;;;;;5012935;28;20200;-86
2023/05/16 05:03:38;;;;;;;17.83;15.50;;;9.80;75.70;;;;;;5013027;28;20228;-86
2023/05/16 05:06:03;;;;;;;23.90;16.03;;;9.90;75.80;;;;;;5013942;28;20260;-86
2023/05/16 05:08:29;;;;;;;22.40;15.63;;;9.90;75.20;;;;;;5012634;28;20533;-86
2023/05/16 05:10:55;;;;;;;21.27;15.67;;;9.90;75.20;;;;;;5012806;28;20208;-86
2023/05/16 05:13:20;;;;;;;20.03;14.97;;;9.90;75.20;;;;;;5013714;28;20219;-86
2023/05/16 05:15:46;;;;;;;19.20;15.27;;;9.90;74.60;;;;;;5013780;28;20549;-86
2023/05/16 05:18:12;;;;;;;25.27;15.87;;;9.90;74.70;;;;;;5012590;28;20532;-87
2023/05/16 05:20:37;;;;;;;23.77;15.90;;;10.00;74.70;;;;;;5012497;28;20200;-86
2023/05/16 05:23:03;;;;;;;24.70;15.17;;;10.10;74.50;;;;;;5014123;28;20174;-86
2023/05/16 05:25:28;;;;;;;26.07;15.30;;;10.00;74.10;;;;;;5012655;28;20523;-86
2023/05/16 05:27:54;;;;;;;20.20;16.37;;;10.00;74.00;;;;;;5012517;28;20178;-86
2023/05/16 05:30:20;;;;;;;18.53;16.30;;;10.20;73.80;;;;;;5013698;28;20260;-86
2023/05/16 05:32:45;;;;;;;19.03;16.53;;;10.10;73.40;;;;;;5013862;28;20174;-86
2023/05/16 05:35:11;;;;;;;18.63;15.77;;;10.20;72.70;;;;;;5012420;28;20185;-86
2023/05/16 05:37:36;;;;;;;22.73;15.23;;;10.40;72.80;;;;;;5013570;28;20182;-87
2023/05/16 05:40:02;;;;;;;19.63;13.70;;;10.50;73.00;;;;;;5012427;28;20205;-86
2023/05/16 05:42:28;;;;;;;22.27;14.87;;;10.40;73.50;;;;;;5012492;28;20220;-87
2023/05/16 05:44:54;;;;;;;27.67;15.47;;;10.50;74.20;;;;;;5014055;28;20165;-87
2023/05/16 05:47:20;;;;;;;26.77;15.97;;;10.50;74.10;;;;;;5012492;28;20223;-87
2023/05/16 05:49:47;;;;;;;15.90;13.67;;;10.60;74.30;;;;;;5012299;28;20686;-86
2023/05/16 05:52:12;;;;;;;20.67;16.67;;;10.50;74.10;;;;;;5013381;28;20193;-86
2023/05/16 05:54:38;;;;;;;22.20;15.93;;;10.40;73.90;;;;;;5013641;28;20227;-86
2023/05/16 05:57:03;;;;;;;23.03;15.10;;;10.30;74.00;;;;;;5012253;28;20221;-86
2023/05/16 05:59:29;;;;;;;23.47;16.17;;;10.30;73.90;;;;;;5014588;28;20201;-85
2023/05/16 06:01:54;;;;;;;25.90;16.47;;;10.30;74.20;;;;;;5015474;28;20193;-86
2023/05/16 06:04:20;;;;;;;23.43;17.77;;;10.30;73.40;;;;;;5016311;28;20193;-85
2023/05/16 06:06:47;;;;;;;20.70;17.03;;;10.50;72.90;;;;;;5017978;28;20260;-86
2023/05/16 06:09:13;;;;;;;26.83;17.00;;;10.70;71.80;;;;;;5017663;28;20178;-86
2023/05/16 06:11:40;;;;;;;25.30;17.70;;;10.80;72.10;;;;;;5020684;28;20189;-85
2023/05/16 06:14:05;;;;;;;15.57;9.97;;;10.80;72.10;;;;;;5021232;28;20204;-85
2023/05/16 06:16:31;;;;;;;16.10;9.23;;;10.80;71.20;;;;;;5018013;28;20173;-87
2023/05/16 06:18:56;;;;;;;16.30;9.93;;;11.00;72.00;;;;;;5018363;28;20624;-86
2023/05/16 06:21:22;;;;;;;17.53;8.57;;;11.00;71.30;;;;;;5017496;28;20649;-86
2023/05/16 06:23:47;;;;;;;14.83;9.37;;;11.00;70.70;;;;;;5016242;28;20259;-87
2023/05/16 06:26:13;;;;;;;17.93;10.60;;;11.00;70.80;;;;;;5016452;28;20176;-87
2023/05/16 06:28:38;;;;;;;11.70;8.07;;;11.00;69.70;;;;;;5017578;28;20181;-87
2023/05/16 06:31:04;;;;;;;15.43;9.47;;;11.20;70.40;;;;;;5017747;28;20201;-87
2023/05/16 06:33:30;;;;;;;16.07;9.87;;;11.20;70.10;;;;;;5016074;28;20188;-87
2023/05/16 06:35:55;;;;;;;14.83;9.50;;;11.20;69.10;;;;;;5016027;28;20178;-86
2023/05/16 06:38:21;;;;;;;19.63;9.30;;;11.30;68.60;;;;;;5017395;28;20243;-86
2023/05/16 06:40:46;;;;;;;15.27;9.93;;;11.00;67.60;;;;;;5015845;28;20228;-87
2023/05/16 06:43:12;;;;;;;12.90;8.93;;;10.90;68.90;;;;;;5015781;28;20181;-86
2023/05/16 06:45:37;;;;;;;17.17;10.47;;;10.90;69.60;;;;;;5017208;28;20180;-86
2023/05/16 06:48:05;;;;;;;19.60;11.53;;;10.90;69.60;;;;;;5017991;28;20541;-85
2023/05/16 06:50:30;;;;;;;17.73;11.30;;;11.00;67.80;;;;;;5016779;28;20225;-87
2023/05/16 06:52:56;;;;;;;12.73;10.97;;;11.00;67.50;;;;;;5017693;28;20530;-86
2023/05/16 06:55:22;;;;;;;12.97;11.50;;;11.10;68.50;;;;;;5015742;28;20213;-87
2023/05/16 06:57:47;;;;;;;25.13;19.07;;;11.00;68.30;;;;;;5015836;28;20669;-86
2023/05/16 07:00:16;;;;;;;21.37;19.17;;;11.10;67.50;;;;;;5015455;28;20220;-86
2023/05/16 07:02:42;;;;;;;21.83;19.90;;;11.00;67.10;;;;;;5016056;28;20185;-86
2023/05/16 07:05:08;;;;;;;20.03;18.23;;;11.00;66.00;;;;;;5016601;28;20184;-86
2023/05/16 07:07:33;;;;;;;20.10;17.87;;;11.00;67.00;;;;;;5016455;28;20557;-87
2023/05/16 07:09:59;;;;;;;18.83;16.13;;;11.20;65.50;;;;;;5016907;28;20219;-87
2023/05/16 07:12:25;;;;;;;18.00;16.20;;;11.50;66.40;;;;;;5016555;28;20292;-87
2023/05/16 07:14:51;;;;;;;20.57;18.87;;;11.70;66.20;;;;;;5016317;28;20624;-87
2023/05/16 07:17:16;;;;;;;20.37;17.67;;;11.50;64.00;;;;;;5016582;28;20192;-87
2023/05/16 07:19:42;;;;;;;17.70;16.20;;;11.40;64.50;;;;;;5016544;28;20205;-87
2023/05/16 07:22:07;;;;;;;18.67;16.30;;;11.40;65.30;;;;;;5015391;28;20659;-86
2023/05/16 07:24:33;;;;;;;24.73;17.23;;;11.60;67.10;;;;;;5015286;28;20185;-86
2023/05/16 07:26:58;;;;;;;20.17;17.53;;;11.80;67.60;;;;;;5014757;28;20178;-87
2023/05/16 07:29:24;;;;;;;21.17;19.00;;;11.90;65.80;;;;;;5016722;28;20177;-87
2023/05/16 07:31:50;;;;;;;21.17;18.20;;;11.90;65.40;;;;;;5015361;28;20590;-88
2023/05/16 07:34:15;;;;;;;23.10;18.50;;;11.50;66.70;;;;;;5017557;28;20663;-87
2023/05/16 07:36:41;;;;;;;21.47;17.93;;;11.70;67.60;;;;;;5016017;28;20185;-87
2023/05/16 07:39:07;;;;;;;19.40;17.40;;;11.60;67.00;;;;;;5016968;28;20197;-87
2023/05/16 07:41:32;;;;;;;19.93;17.70;;;11.50;67.70;;;;;;5015071;28;20197;-86
2023/05/16 07:43:58;;;;;;;25.63;18.57;;;11.80;68.10;;;;;;5016138;28;20178;-86
2023/05/16 07:46:24;;;;;;;20.63;17.73;;;12.10;67.70;;;;;;5014860;28;20588;-87
2023/05/16 07:48:49;;;;;;;23.53;18.20;;;12.00;67.30;;;;;;5017947;28;20192;-87
2023/05/16 07:51:15;;;;;;;25.27;19.60;;;11.90;67.70;;;;;;5017382;28;20200;-87
2023/05/16 07:53:40;;;;;;;22.67;19.17;;;11.70;65.60;;;;;;5017572;28;20189;-87
2023/05/16 07:56:06;;;;;;;21.13;18.97;;;11.70;66.50;;;;;;5019058;28;20215;-86
2023/05/16 07:58:32;;;;;;;21.07;18.67;;;11.90;66.40;;;;;;5019723;28;20205;-87
2023/05/16 08:00:58;;;;;;;30.17;20.43;;;12.20;66.90;;;;;;5017636;28;20205;-86
2023/05/16 08:03:23;;;;;;;20.70;18.93;;;12.10;62.90;;;;;;5018370;28;20185;-86
2023/05/16 08:05:49;;;;;;;16.07;12.87;;;11.90;60.70;;;;;;5018013;28;20181;-87
2023/05/16 08:08:14;;;;;;;19.10;12.33;;;12.00;62.20;;;;;;5018322;28;20237;-86
2023/05/16 08:10:40;;;;;;;16.90;13.23;;;12.20;63.00;;;;;;5016443;28;20198;-86
2023/05/16 08:13:05;;;;;;;13.07;11.70;;;12.10;61.00;;;;;;5018279;28;20687;-87
2023/05/16 08:15:31;;;;;;;14.33;12.77;;;12.30;62.20;;;;;;5016425;28;20281;-87
2023/05/16 08:17:57;;;;;;;13.20;12.00;;;12.50;63.10;;;;;;5015881;28;20272;-87
2023/05/16 08:20:23;;;;;;;15.97;12.40;;;12.60;62.30;;;;;;5017896;28;20228;-87
2023/05/16 08:22:50;;;;;;;21.90;11.60;;;12.60;62.10;;;;;;5016835;28;20178;-87
2023/05/16 08:25:15;;;;;;;14.50;12.67;;;12.90;61.20;;;;;;5016369;28;20181;-87
2023/05/16 08:27:41;;;;;;;11.83;10.83;;;12.90;62.00;;;;;;5016477;28;20185;-86
2023/05/16 08:30:07;;;;;;;18.97;12.57;;;12.70;60.40;;;;;;5015499;28;20196;-87
2023/05/16 08:32:33;;;;;;;14.63;11.83;;;12.80;61.40;;;;;;5014934;28;20189;-87
2023/05/16 08:34:59;;;;;;;14.80;11.80;;;12.90;60.60;;;;;;5014214;28;20177;-86
2023/05/16 08:37:25;;;;;;;13.47;11.87;;;13.10;61.90;;;;;;5013589;28;20193;-87
2023/05/16 08:39:50;;;;;;;18.47;12.70;;;13.00;60.00;;;;;;5014044;28;20217;-87
2023/05/16 08:42:16;;;;;;;15.30;11.33;;;12.80;61.80;;;;;;5014453;28;20193;-87
2023/05/16 08:44:41;;;;;;;19.07;12.57;;;13.10;61.80;;;;;;5014949;28;20216;-87
2023/05/16 08:47:13;;;;;;;20.07;18.17;;;13.50;62.90;;;;;;5014967;28;20632;-87
2023/05/16 08:49:41;;;;;;;19.80;17.30;;;13.40;62.50;;;;;;5013003;28;20665;-87
2023/05/16 08:52:08;;;;;;;22.77;16.80;;;13.40;61.60;;;;;;5012551;28;20200;-87
2023/05/16 08:54:35;;;;;;;16.77;15.37;;;13.00;62.10;;;;;;5012504;28;20177;-86
2023/05/16 08:57:02;;;;;;;17.63;15.80;;;12.30;60.60;;;;;;5012570;28;20185;-87
2023/05/16 08:59:28;;;;;;;18.43;14.40;;;11.80;63.90;;;;;;5012385;28;20205;-86
2023/05/16 09:01:54;;;;;;;20.03;15.17;;;12.50;64.70;;;;;;5013781;28;20193;-86
2023/05/16 09:04:20;;;;;;;18.23;15.33;;;12.90;60.70;;;;;;5012706;28;20307;-87
2023/05/16 09:06:47;;;;;;;17.20;15.80;;;13.10;61.10;;;;;;5012537;28;20245;-86
2023/05/16 09:09:13;;;;;;;18.37;16.67;;;13.10;58.80;;;;;;5013350;28;20185;-87
2023/05/16 09:11:38;;;;;;;21.07;16.80;;;12.90;59.20;;;;;;5018704;28;20204;-88
2023/05/16 09:14:04;;;;;;;16.97;15.47;;;12.90;60.20;;;;;;5017705;28;20187;-87
2023/05/16 09:16:30;;;;;;;18.47;16.40;;;13.20;59.00;;;;;;5018497;28;20177;-87
2023/05/16 09:18:57;;;;;;;18.73;16.90;;;13.40;58.30;;;;;;5018110;28;20228;-87
2023/05/16 09:21:27;;;;;;;19.57;16.60;;;13.60;59.80;;;;;;5018154;28;20223;-88
2023/05/16 09:23:53;;;;;;;20.70;17.60;;;13.00;58.10;;;;;;5016708;28;20169;-87
2023/05/16 09:26:18;;;;;;;23.40;16.90;;;13.50;59.60;;;;;;5014742;28;20177;-87
2023/05/16 09:28:44;;;;;;;18.80;16.70;;;13.40;60.90;;;;;;5016428;28;20674;-86
2023/05/16 09:31:39;;;;;;;15.13;11.20;;;12.40;61.40;;;;;;5016330;28;20193;-87
2023/05/16 09:34:10;;;;;;;13.30;11.70;;;12.30;63.30;;;;;;5007176;28;20185;-87
2023/05/16 09:36:36;;;;;;;16.80;11.80;;;13.00;63.50;;;;;;5015317;28;20615;-87
2023/05/16 09:39:02;;;;;;;18.00;12.20;;;12.70;61.50;;;;;;5015438;28;20254;-87
2023/05/16 09:41:27;;;;;;;15.33;11.97;;;12.30;61.10;;;;;;5016095;28;20687;-87
2023/05/16 09:43:54;;;;;;;18.10;11.13;;;12.10;63.70;;;;;;5017839;28;20577;-86
2023/05/16 09:46:25;;;;;;;12.20;11.00;;;12.60;63.50;;;;;;5018925;28;20173;-87
2023/05/16 09:48:50;;;;;;;16.17;11.63;;;13.00;60.60;;;;;;5018257;28;20196;-86
2023/05/16 09:51:21;;;;;;;18.93;11.23;;;13.50;60.00;;;;;;5015855;28;20201;-87
2023/05/16 09:53:47;;;;;;;20.97;12.23;;;13.70;60.60;;;;;;5017357;28;20158;-87
2023/05/16 09:56:13;;;;;;;15.53;11.23;;;12.80;60.40;;;;;;5015714;28;20280;-87
2023/05/16 09:58:41;;;;;;;17.73;12.87;;;12.70;58.90;;;;;;5015655;28;20288;-87
2023/05/16 10:01:07;;;;;;;16.07;11.23;;;12.70;59.50;;;;;;5015618;28;20288;-86
2023/05/16 10:03:35;;;;;;;20.03;10.20;;;12.40;58.40;;;;;;5015748;28;20180;-87
2023/05/16 10:06:00;;;;;;;16.53;10.20;;;12.20;61.10;;;;;;5016493;28;20173;-86
2023/05/16 10:08:26;;;;;;;14.33;11.70;;;12.90;61.90;;;;;;5015646;28;20251;-86
2023/05/16 10:10:54;;;;;;;16.77;12.00;;;13.40;62.30;;;;;;5015629;28;20761;-87
2023/05/16 10:13:29;;;;;;;11.77;10.60;;;13.30;60.90;;;;;;5016941;28;20251;-87
2023/05/16 10:15:56;;;;;;;18.17;16.67;;;12.30;61.70;;;;;;5016113;28;20226;-86
2023/05/16 10:18:28;;;;;;;19.27;17.43;;;12.20;61.70;;;;;;5015337;28;20235;-86
2023/05/16 10:21:06;;;;;;;20.83;18.57;;;12.00;64.10;;;;;;5015362;28;20695;-86
2023/05/16 10:23:33;;;;;;;20.57;18.00;;;11.90;65.50;;;;;;5016397;28;20177;-86
2023/05/16 10:26:02;;;;;;;24.50;16.73;;;12.30;67.60;;;;;;5016679;28;20540;-86
2023/05/16 10:28:28;;;;;;;20.60;17.23;;;13.10;67.20;;;;;;5016675;28;20189;-85
2023/05/16 10:30:55;;;;;;;18.47;16.40;;;12.50;66.90;;;;;;5016544;28;20205;-85
2023/05/16 10:33:20;;;;;;;17.60;15.53;;;11.50;69.80;;;;;;5016545;28;20257;-86
2023/05/16 10:35:46;;;;;;;19.20;16.47;;;11.10;72.80;;;;;;5015330;28;20201;-85
2023/05/16 10:38:15;;;;;;;19.83;18.07;;;10.70;72.60;;;;;;5015326;28;20185;-86
2023/05/16 10:40:41;;;;;;;17.17;15.67;;;10.70;71.80;;;;;;5015317;28;20567;-86
2023/05/16 10:43:07;;;;;;;18.63;17.23;;;10.70;70.70;;;;;;5016366;28;20174;-85
2023/05/16 10:45:34;;;;;;;19.53;17.93;;;10.60;69.00;;;;;;5016108;28;20189;-87
2023/05/16 10:48:03;;;;;;;19.13;17.53;;;11.10;69.00;;;;;;5016230;28;20195;-85
2023/05/16 10:50:42;;;;;;;19.27;17.40;;;11.90;67.60;;;;;;5015905;28;20185;-86
2023/05/16 10:53:27;;;;;;;18.37;17.17;;;12.20;66.30;;;;;;5015161;28;20582;-85
2023/05/16 10:55:59;;;;;;;17.87;16.10;;;11.70;66.50;;;;;;5014903;28;20185;-85
2023/05/16 10:58:34;;;;;;;12.50;11.43;;;11.80;67.50;;;;;;5015669;28;20174;-87
2023/05/16 11:01:24;;;;;;;18.10;12.17;;;11.50;67.90;;;;;;5014789;28;20193;-87
2023/05/16 11:03:59;;;;;;;12.73;11.27;;;12.10;68.50;;;;;;5016197;28;20154;-85
2023/05/16 11:06:27;;;;;;;12.50;10.97;;;12.60;67.00;;;;;;5014505;28;20264;-85
2023/05/16 11:08:58;;;;;;;10.33;9.33;;;13.20;65.70;;;;;;5015588;28;20180;-86
2023/05/16 11:11:47;;;;;;;10.37;9.47;;;13.40;62.00;;;;;;5015743;28;20194;-87
2023/05/16 11:14:20;;;;;;;11.67;9.97;;;13.20;62.30;;;;;;5014390;28;20177;-87
2023/05/16 11:17:01;;;;;;;12.20;10.33;;;13.60;61.40;;;;;;5014227;28;20181;-87
2023/05/16 11:19:38;;;;;;;11.70;10.53;;;13.90;62.30;;;;;;5015694;28;20201;-87
2023/05/16 11:22:20;;;;;;;11.77;10.73;;;13.50;59.80;;;;;;5014036;28;20639;-86
2023/05/16 11:25:03;;;;;;;11.03;10.23;;;13.00;57.60;;;;;;5014209;28;20224;-87
2023/05/16 11:27:41;;;;;;;11.97;10.87;;;13.20;56.90;;;;;;5015405;28;20232;-86
2023/05/16 11:30:14;;;;;;;12.33;11.10;;;13.30;57.20;;;;;;5015401;28;20280;-87
2023/05/16 11:32:45;;;;;;;12.23;10.93;;;13.30;58.30;;;;;;5013826;28;20212;-85
2023/05/16 11:35:16;;;;;;;17.23;11.47;;;13.60;58.50;;;;;;5013919;28;20174;-85
2023/05/16 11:37:43;;;;;;;12.37;11.07;;;13.30;60.30;;;;;;5015128;28;20181;-84
2023/05/16 11:40:11;;;;;;;13.70;10.87;;;13.50;59.90;;;;;;5013659;28;20632;-87
2023/05/16 11:42:40;;;;;;;10.27;8.67;;;12.00;62.90;;;;;;5014054;28;20291;-84
2023/05/16 11:45:17;;;;;;;10.83;7.27;;;10.60;72.90;;;;;;5014024;28;20533;-84
2023/05/16 11:47:44;;;;;;;10.03;7.37;;;10.60;75.50;;;;;;5014931;28;20245;-85
2023/05/16 11:50:11;;;;;;;9.60;6.10;;;10.50;75.80;;;;;;5016176;28;20750;-86
2023/05/16 11:52:52;;;;;;;10.43;6.10;;;10.10;77.90;;;;;;5016445;28;20193;-85
2023/05/16 11:55:25;;;;;;;14.37;12.97;;;10.30;77.50;;;;;;5014953;28;20181;-86
2023/05/16 11:58:05;;;;;;;13.37;11.80;;;10.20;77.20;;;;;;5014106;28;20243;-85
2023/05/16 12:01:07;;;;;;;19.60;12.03;;;10.60;77.60;;;;;;5043423;22;20706;-85
2023/05/16 12:04:12;;;;;;;14.90;12.40;;;10.40;77.20;;;;;;5014226;28;20205;-85
2023/05/16 12:14:13;;;;;;;15.13;9.97;;;10.30;81.60;;;;;;4916148;29;20209;-85
2023/05/16 12:17:13;;;;;;;16.27;8.67;;;11.20;82.20;;;;;;4915276;29;20699;-85
2023/05/16 12:19:52;;;;;;;;;;;;;;;;;;;;;
2023/05/16 12:22:36;;;;;;;;;;;;;;;;;;;;;
2023/05/16 12:26:00;;;;;;;;;;;;;;;;;;;;;
2023/05/16 12:29:05;;;;;;;19.53;12.53;;;11.90;78.90;;;;;;4995495;28;20624;-85
2023/05/16 12:32:58;;;;;;;21.73;13.40;;;11.60;76.50;;;;;;4977290;28;20194;-85
2023/05/16 12:38:53;;;;;;;14.07;12.13;;;11.00;74.40;;;;;;4912815;29;20263;-84
2023/05/16 13:46:02;;;;;;;12.93;11.70;;;10.80;75.40;;;;;;4600107;26;20218;-85
2023/05/16 13:48:28;;;;;;;14.03;11.27;;;11.10;74.50;;;;;;5015471;28;20587;-84
2023/05/16 13:50:54;;;;;;;14.07;12.10;;;11.40;74.60;;;;;;5033146;28;20228;-84
2023/05/16 13:53:20;;;;;;;13.63;12.33;;;11.70;73.40;;;;;;5015157;28;20184;-84
2023/05/16 13:55:45;;;;;;;12.93;11.83;;;12.20;73.60;;;;;;5033558;28;20176;-85